createdAt,value
2023-01-10T00:03:42.179Z,100929.56
2023-01-10T00:08:47.716Z,100931.19
2023-01-10T00:13:54.236Z,100931.13
2023-01-10T00:18:59.081Z,100923.31
2023-01-10T00:24:17.146Z,100939.81
2023-01-10T00:29:20.685Z,100939.72
2023-01-10T00:34:25.288Z,100952.69
2023-01-10T00:39:28.308Z,100957.91
2023-01-10T00:44:31.370Z,100957.09
2023-01-10T00:49:35.921Z,100961.53
2023-01-10T00:54:38.941Z,100960.75
2023-01-10T00:59:41.929Z,100951.28
2023-01-10T01:04:46.292Z,100950.44
2023-01-10T01:10:06.987Z,100958.16
2023-01-10T01:15:10.677Z,100956.41
2023-01-10T01:20:15.397Z,100948.69
2023-01-10T01:25:18.383Z,100940.94
2023-01-10T01:30:21.328Z,100949.59
2023-01-10T01:35:26.309Z,100947.88
2023-01-10T01:40:29.329Z,100928.84
2023-01-10T01:45:40.374Z,100946.91
2023-01-10T01:50:49.449Z,100954.72
2023-01-10T01:55:53.293Z,100951.25
2023-01-10T02:00:56.323Z,100962.44
2023-01-10T02:06:01.235Z,100960.69
2023-01-10T02:11:08.679Z,100975.38
2023-01-10T02:16:11.911Z,100972.03
2023-01-10T02:21:43.120Z,100991.13
2023-01-10T02:27:19.809Z,100984.22
2023-01-10T02:32:43.749Z,100985.06
2023-01-10T02:37:55.557Z,100984.19
2023-01-10T02:43:02.931Z,100985.03
2023-01-10T02:48:07.520Z,100987.56
2023-01-10T02:53:13.011Z,101010.91
2023-01-10T02:58:24.921Z,101015.25
2023-01-10T03:03:36.135Z,101030.81
2023-01-10T03:08:40.908Z,101037.72
2023-01-10T03:13:49.310Z,101034.28
2023-01-10T03:18:55.609Z,101048.09
2023-01-10T03:24:02.168Z,101059.28
2023-01-10T03:29:07.974Z,101066.19
2023-01-10T03:34:13.010Z,101074.88
2023-01-10T03:39:19.901Z,101081.78
2023-01-10T03:44:43.449Z,101095.72
2023-01-10T03:49:50.058Z,101079.34
2023-01-10T03:54:54.053Z,101106.06
2023-01-10T03:59:59.189Z,101112.94
2023-01-10T04:05:03.995Z,101118.97
2023-01-10T04:10:08.114Z,101136.22
2023-01-10T04:15:11.575Z,101143.16
2023-01-10T04:20:15.898Z,101153.53
2023-01-10T04:25:18.832Z,101166.53
2023-01-10T04:30:21.952Z,101178.66
2023-01-10T04:35:26.343Z,101184.72
2023-01-10T04:40:29.391Z,101184.75
2023-01-10T04:45:32.483Z,101184.81
2023-01-10T04:50:37.353Z,101176.25
2023-01-10T04:55:40.369Z,101177.16
2023-01-10T05:00:43.280Z,101178.91
2023-01-10T05:05:47.789Z,101178.03
2023-01-10T05:10:53.844Z,101203.09
2023-01-10T05:15:58.039Z,101195.31
2023-01-10T05:21:02.985Z,101224.72
2023-01-10T05:26:07.828Z,101206.56
2023-01-10T05:31:13.698Z,101213.44
2023-01-10T05:36:19.160Z,101222.91
2023-01-10T05:41:22.189Z,101209.09
2023-01-10T05:46:25.087Z,101214.31
2023-01-10T05:51:29.992Z,101200.47
2023-01-10T05:56:32.923Z,101231.59
2023-01-10T06:01:35.831Z,101227.31
2023-01-10T06:06:40.167Z,101235.09
2023-01-10T06:11:43.205Z,101238.53
2023-01-10T06:16:46.238Z,101240.25
2023-01-10T06:21:50.476Z,101243.72
2023-01-10T06:26:53.389Z,101251.50
2023-01-10T06:31:56.905Z,101249.75
2023-01-10T06:37:01.097Z,101257.47
2023-01-10T06:42:04.093Z,101279.13
2023-01-10T06:47:07.129Z,101287.84
2023-01-10T06:52:11.450Z,101302.50
2023-01-10T06:57:14.504Z,101312.06
2023-01-10T07:02:17.802Z,101305.13
2023-01-10T07:07:22.699Z,101316.34
2023-01-10T07:12:25.831Z,101326.75
2023-01-10T07:17:28.838Z,101338.84
2023-01-10T07:22:33.213Z,101357.88
2023-01-10T07:27:36.713Z,101350.97
2023-01-10T07:32:39.787Z,101351.84
2023-01-10T07:37:44.265Z,101361.38
2023-01-10T07:42:47.233Z,101350.13
2023-01-10T07:47:50.258Z,101362.22
2023-01-10T07:52:54.781Z,101355.31
2023-01-10T07:57:57.886Z,101367.41
2023-01-10T08:03:01.059Z,101356.16
2023-01-10T08:08:07.907Z,101364.81
2023-01-10T08:13:18.926Z,101374.34
2023-01-10T08:18:23.995Z,101379.50
2023-01-10T08:23:28.563Z,101363.06
2023-01-10T08:28:31.700Z,101363.06
2023-01-10T08:33:34.798Z,101365.66
2023-01-10T08:38:42.421Z,101361.31
2023-01-10T08:43:45.365Z,101357.00
2023-01-10T08:48:50.269Z,101363.94
2023-01-10T08:53:54.864Z,101362.19
2023-01-10T08:58:58.036Z,101361.34
2023-01-10T09:04:01.342Z,101363.91
2023-01-10T09:09:05.980Z,101350.94
2023-01-10T09:14:08.931Z,101344.03
2023-01-10T09:19:12.348Z,101363.03
2023-01-10T09:24:16.542Z,101355.28
2023-01-10T09:29:19.552Z,101345.78
2023-01-10T09:34:22.625Z,101350.09
2023-01-10T09:39:28.480Z,101347.50
2023-01-10T09:44:42.108Z,101346.63
2023-01-10T09:49:49.440Z,101355.28
2023-01-10T09:54:54.663Z,101346.63
2023-01-10T09:59:58.305Z,101346.63
2023-01-10T10:05:13.353Z,101331.06
2023-01-10T10:10:22.167Z,101327.63
2023-01-10T10:15:32.185Z,101343.19
2023-01-10T10:20:46.375Z,101335.41
2023-01-10T10:26:02.827Z,101318.97
2023-01-10T10:31:10.445Z,101320.69
2023-01-10T10:36:19.468Z,101317.25
2023-01-10T10:41:31.588Z,101312.06
2023-01-10T10:46:34.491Z,101315.50
2023-01-10T10:51:42.625Z,101308.59
2023-01-10T10:56:47.188Z,101287.81
2023-01-10T11:01:52.181Z,101289.53
2023-01-10T11:06:55.613Z,101280.06
2023-01-10T11:11:59.800Z,101274.84
2023-01-10T11:17:19.674Z,101275.72
2023-01-10T11:22:22.645Z,101259.31
2023-01-10T11:27:28.418Z,101261.88
2023-01-10T11:32:35.338Z,101275.72
2023-01-10T11:37:38.140Z,101275.72
2023-01-10T11:42:42.293Z,101262.75
2023-01-10T11:47:47.039Z,101264.47
2023-01-10T11:52:50.812Z,101242.88
2023-01-10T11:58:04.012Z,101237.69
2023-01-10T12:03:17.502Z,101228.16
2023-01-10T12:08:28.807Z,101229.00
2023-01-10T12:13:45.470Z,101223.81
2023-01-10T12:18:48.477Z,101223.81
2023-01-10T12:23:51.995Z,101210.88
2023-01-10T12:28:59.916Z,101206.53
2023-01-10T12:34:07.216Z,101206.53
2023-01-10T12:39:16.528Z,101201.34
2023-01-10T12:44:24.563Z,101182.34
2023-01-10T12:49:29.833Z,101171.94
2023-01-10T12:54:32.812Z,101163.31
2023-01-10T12:59:41.247Z,101138.22
2023-01-10T13:04:47.116Z,101120.09
2023-01-10T13:09:50.378Z,101113.16
2023-01-10T13:14:57.256Z,101106.22
2023-01-10T13:20:28.760Z,101102.75
2023-01-10T13:25:35.965Z,101098.44
2023-01-10T13:30:41.713Z,101083.72
2023-01-10T13:35:47.852Z,101081.97
2023-01-10T13:41:04.906Z,101076.72
2023-01-10T13:46:41.012Z,101062.97
2023-01-10T13:52:16.519Z,101051.78
2023-01-10T13:57:51.472Z,101041.47
2023-01-10T14:03:01.196Z,101019.91
2023-01-10T14:08:04.090Z,101005.22
2023-01-10T14:13:16.340Z,100990.56
2023-01-10T14:18:22.885Z,100966.34
2023-01-10T14:23:30.320Z,100940.44
2023-01-10T14:28:35.260Z,100883.50
2023-01-10T14:33:43.152Z,100886.91
2023-01-10T14:38:46.849Z,100867.03
2023-01-10T14:43:56.352Z,100835.97
2023-01-10T14:49:01.103Z,100800.59
2023-01-10T14:54:05.367Z,100779.00
2023-01-10T14:59:18.309Z,100767.78
2023-01-10T15:04:25.265Z,100737.56
2023-01-10T15:09:29.004Z,100722.88
2023-01-10T15:14:33.609Z,100701.28
2023-01-10T15:19:39.759Z,100690.94
2023-01-10T15:24:44.471Z,100709.91
2023-01-10T15:29:47.470Z,100715.09
2023-01-10T15:34:53.026Z,100687.47
2023-01-10T15:39:56.168Z,100673.66
2023-01-10T15:44:59.768Z,100660.69
2023-01-10T15:50:04.456Z,100665.03
2023-01-10T15:55:22.152Z,100667.56
2023-01-10T16:00:25.002Z,100655.50
2023-01-10T16:05:29.300Z,100640.81
2023-01-10T16:10:37.047Z,100643.38
2023-01-10T16:15:42.217Z,100627.84
2023-01-10T16:20:47.171Z,100623.53
2023-01-10T16:25:53.233Z,100629.56
2023-01-10T16:30:56.431Z,100643.38
2023-01-10T16:36:00.894Z,100640.78
2023-01-10T16:41:25.402Z,100624.44
2023-01-10T16:46:28.640Z,100653.72
2023-01-10T16:51:34.142Z,100656.31
2023-01-10T16:56:36.966Z,100665.75
2023-01-10T17:01:43.457Z,100665.75
2023-01-10T17:06:48.006Z,100670.06
2023-01-10T17:11:56.675Z,100663.09
2023-01-10T17:16:59.631Z,100657.00
2023-01-10T17:22:03.953Z,100678.59
2023-01-10T17:27:06.924Z,100663.03
2023-01-10T17:32:11.454Z,100655.19
2023-01-10T17:37:15.756Z,100669.03
2023-01-10T17:42:19.000Z,100680.19
2023-01-10T17:47:21.780Z,100700.06
2023-01-10T17:52:25.971Z,100691.34
2023-01-10T17:57:28.850Z,100698.22
2023-01-10T18:02:31.825Z,100692.16
2023-01-10T18:07:36.087Z,100704.97
2023-01-10T18:12:39.184Z,100707.50
2023-01-10T18:17:42.028Z,100696.19
2023-01-10T18:23:05.006Z,100690.03
2023-01-10T18:28:07.989Z,100684.78
2023-01-10T18:33:10.796Z,100681.28
2023-01-10T18:38:14.951Z,100674.28
2023-01-10T18:43:18.722Z,100668.97
2023-01-10T18:48:27.622Z,100665.47
2023-01-10T18:53:33.061Z,100661.88
2023-01-10T18:58:39.052Z,100634.91
2023-01-10T19:03:43.814Z,100635.63
2023-01-10T19:08:51.402Z,100639.81
2023-01-10T19:13:55.542Z,100638.75
2023-01-10T19:19:01.000Z,100642.09
2023-01-10T19:24:07.894Z,100622.03
2023-01-10T19:29:11.493Z,100602.19
2023-01-10T19:34:14.734Z,100595.91
2023-01-10T19:39:18.831Z,100602.72
2023-01-10T19:44:21.743Z,100592.19
2023-01-10T19:49:24.596Z,100592.19
2023-01-10T19:54:28.955Z,100611.22
2023-01-10T19:59:33.128Z,100605.06
2023-01-10T20:04:35.991Z,100598.00
2023-01-10T20:09:40.209Z,100577.16
2023-01-10T20:14:43.031Z,100557.97
2023-01-10T20:19:45.859Z,100545.75
2023-01-10T20:24:50.095Z,100523.13
2023-01-10T20:29:52.923Z,100518.75
2023-01-10T20:34:55.799Z,100500.47
2023-01-10T20:40:00.058Z,100459.69
2023-01-10T20:45:03.016Z,100409.88
2023-01-10T20:50:06.731Z,100456.16
2023-01-10T20:55:11.182Z,100468.28
2023-01-10T21:00:15.047Z,100476.81
2023-01-10T21:05:18.010Z,100478.50
2023-01-10T21:10:22.582Z,100486.22
2023-01-10T21:15:25.661Z,100494.78
2023-01-10T21:20:28.441Z,100505.94
2023-01-10T21:25:32.775Z,100508.41
2023-01-10T21:30:35.581Z,100497.00
2023-01-10T21:35:38.535Z,100486.47
2023-01-10T21:40:42.749Z,100492.25
2023-01-10T21:45:45.779Z,100492.19
2023-01-10T21:50:49.446Z,100486.81
2023-01-10T21:55:53.720Z,100463.25
2023-01-10T22:00:58.720Z,100434.47
2023-01-10T22:06:02.393Z,100428.41
2023-01-10T22:11:07.668Z,100426.56
2023-01-10T22:16:12.105Z,100414.38
2023-01-10T22:21:15.550Z,100416.84
2023-01-10T22:26:19.735Z,100420.22
2023-01-10T22:31:22.575Z,100413.13
2023-01-10T22:36:25.394Z,100428.63
2023-01-10T22:41:29.566Z,100417.13
2023-01-10T22:46:32.622Z,100409.19
2023-01-10T22:51:36.843Z,100400.22
2023-01-10T22:56:41.078Z,100384.22
2023-01-10T23:01:43.826Z,100376.13
2023-01-10T23:06:46.598Z,100361.44
2023-01-10T23:11:50.918Z,100351.63
2023-01-10T23:16:54.786Z,100333.16
2023-01-10T23:21:57.576Z,100323.56
2023-01-10T23:27:01.693Z,100313.78
2023-01-10T23:32:04.667Z,100299.75
2023-01-10T23:37:07.447Z,100290.19
2023-01-10T23:42:11.584Z,100297.78
2023-01-10T23:47:14.380Z,100288.03
2023-01-10T23:52:17.133Z,100280.09
2023-01-10T23:57:21.228Z,100281.72
